Varmdo — SMXZ — position and weather

sailwx.info

Track history (hours):
 
Tides and Currents Weather Stations Pressure Air Temp Water Temp Dewpoint Dewpoint Depression Visibility Wind Speed Wind Dir Waves Ship Positions

Varmdo

Last reported at 2014-Jul-30 14:33 UTC. Time now 2014-Jul-30 17:21 UTC.
Position N 59°19' E 018°05'.

Length 38 m; draft 2.5 m.

Type: Passenger vessel. MMSI: 265520390.

Date/timePositionNaut miles runAvg speedWind from/ knotsBaromVisibWave heightAir tempDewpointWater temp
2014-Jul-30 14:33N 59°19' E 018°05'0 0.1
2014-Jul-30 10:19N 59°20' E 018°04'0 0.0
2014-Jul-30 08:08N 59°20' E 018°04'5 8.4
2014-Jul-30 07:29N 59°22' E 018°15'3 0.2
2014-Jul-29 14:21N 59°23' E 018°20'910.8
2014-Jul-29 13:32N 59°20' E 018°05'2 1.9
2014-Jul-29 12:33N 59°19' E 018°08'5 1.3
2014-Jul-29 08:29N 59°22' E 018°17'5 1.6
2014-Jul-29 05:33N 59°19' E 018°09'1 0.1
2014-Jul-28 14:25N 59°20' E 018°11'3 3.5
2014-Jul-28 13:25N 59°20' E 018°05'4 0.6
2014-Jul-28 06:24N 59°20' E 018°12'4 4.6
2014-Jul-28 05:31N 59°20' E 018°04'0 0.0
2014-Jul-28 04:31N 59°20' E 018°04'0 0.0
2014-Jul-28 03:28N 59°20' E 018°04'0 0.0
2014-Jul-28 02:31N 59°20' E 018°04'0 0.0
2014-Jul-28 01:31N 59°20' E 018°04'0 0.0
2014-Jul-28 00:31N 59°20' E 018°04'0 0.0
2014-Jul-27 23:31N 59°20' E 018°04'0 0.0
2014-Jul-27 22:31N 59°20' E 018°04'0 0.0
2014-Jul-27 21:31N 59°20' E 018°04'0 0.0
2014-Jul-27 20:31N 59°20' E 018°04'0 0.0
2014-Jul-27 19:31N 59°20' E 018°04'0 0.0
2014-Jul-27 18:31N 59°20' E 018°04'4 0.7
2014-Jul-27 13:33N 59°20' E 018°12'1 0.6
2014-Jul-27 12:33N 59°20' E 018°11'6 1.1
2014-Jul-27 07:11N 59°23' E 018°20'913.6
2014-Jul-27 06:34N 59°19' E 018°05'0 0.5
2014-Jul-27 05:31N 59°20' E 018°04'0 0.0
2014-Jul-27 04:31N 59°20' E 018°04'0 0.0
2014-Jul-27 03:31N 59°20' E 018°04'0 0.0
2014-Jul-27 02:28N 59°20' E 018°04'0 0.0
2014-Jul-27 01:31N 59°20' E 018°04'0 0.0
2014-Jul-27 00:28N 59°20' E 018°04'0 0.0
2014-Jul-26 23:28N 59°20' E 018°04'0 0.0
2014-Jul-26 22:28N 59°20' E 018°04'0 0.0
2014-Jul-26 21:28N 59°20' E 018°04'0 0.0
2014-Jul-26 20:31N 59°20' E 018°04'0 0.0
2014-Jul-26 19:28N 59°20' E 018°04'0 0.0
2014-Jul-26 18:28N 59°20' E 018°04'0 0.0
2014-Jul-26 17:28N 59°20' E 018°04'0 0.0
2014-Jul-26 16:31N 59°20' E 018°04'0 0.0
2014-Jul-26 15:28N 59°20' E 018°04'0 0.0
2014-Jul-26 14:31N 59°20' E 018°04'0 0.0
2014-Jul-26 13:31N 59°20' E 018°04'6 5.2
2014-Jul-26 12:27N 59°22' E 018°15'3 0.6
2014-Jul-26 07:15N 59°23' E 018°20'912.3
2014-Jul-26 06:33N 59°19' E 018°05'1 0.1
2014-Jul-26 03:04N 59°20' E 018°05'0 0.0
2014-Jul-25 17:08N 59°20' E 018°05'6 7.4
2014-Jul-25 16:22N 59°22' E 018°15'3 0.5
2014-Jul-25 10:18N 59°23' E 018°20'911.6
2014-Jul-25 09:33N 59°19' E 018°05'3 2.5
2014-Jul-25 08:33N 59°19' E 018°10'2 0.1
2014-Jul-24 15:32N 59°21' E 018°13'5 3.1
2014-Jul-24 14:03N 59°20' E 018°05'4 8.0
2014-Jul-24 13:33N 59°20' E 018°12'5 0.8
2014-Jul-24 07:18N 59°23' E 018°20'811.4
2014-Jul-24 06:33N 59°19' E 018°05'0 0.4
2014-Jul-24 05:28N 59°20' E 018°05'0 0.0
2014-Jul-24 04:31N 59°20' E 018°05'0 0.0
2014-Jul-24 03:31N 59°20' E 018°05'0 0.0
2014-Jul-24 02:31N 59°20' E 018°05'0 0.0
2014-Jul-24 01:31N 59°20' E 018°05'0 0.0
2014-Jul-24 00:25N 59°20' E 018°05'0 0.0
2014-Jul-23 23:28N 59°20' E 018°05'0 0.0
2014-Jul-23 22:31N 59°20' E 018°05'0 0.0
2014-Jul-23 21:28N 59°20' E 018°05'0 0.0
2014-Jul-23 20:33N 59°20' E 018°05'7 1.4
2014-Jul-23 15:12N 59°23' E 018°18'711.4
2014-Jul-23 14:33N 59°19' E 018°05'0 0.1
2014-Jul-23 12:06N 59°20' E 018°05'0 0.8
2014-Jul-23 11:33N 59°19' E 018°05'8 7.0
2014-Jul-23 10:21N 59°23' E 018°20'8 7.2
2014-Jul-23 09:10N 59°20' E 018°05'4 2.4
2014-Jul-23 07:33N 59°20' E 018°12'5 0.3
2014-Jul-22 14:17N 59°23' E 018°20'811.1
2014-Jul-22 13:32N 59°20' E 018°05'3 3.2
2014-Jul-22 12:33N 59°19' E 018°11'4 1.0
2014-Jul-22 08:28N 59°22' E 018°17'5 1.6
2014-Jul-22 05:33N 59°19' E 018°09'1 0.1
2014-Jul-21 14:12N 59°19' E 018°07'1 1.3
2014-Jul-21 13:30N 59°19' E 018°05'1 0.1
2014-Jul-21 06:09N 59°19' E 018°06'1 0.6
2014-Jul-21 04:09N 59°20' E 018°04'0 0.0
2014-Jul-20 18:33N 59°20' E 018°04'  
Track history (hours):
 
Tides and Currents Weather Stations Pressure Air Temp Water Temp Dewpoint Dewpoint Depression Visibility Wind Speed Wind Dir Waves Ship Positions

Varmdo

Last reported at 2014-Jul-30 14:33 UTC. Time now 2014-Jul-30 17:21 UTC.
Position N 59°19' E 018°05'.

Length 38 m; draft 2.5 m.

Type: Passenger vessel. MMSI: 265520390.

Date/timePositionNaut miles runAvg speedWind from/ knotsBaromVisibWave heightAir tempDewpointWater temp
2014-Jul-30 14:33N 59°19' E 018°05'0 0.1
2014-Jul-30 10:19N 59°20' E 018°04'0 0.0
2014-Jul-30 08:08N 59°20' E 018°04'5 8.4
2014-Jul-30 07:29N 59°22' E 018°15'3 0.2
2014-Jul-29 14:21N 59°23' E 018°20'910.8
2014-Jul-29 13:32N 59°20' E 018°05'2 1.9
2014-Jul-29 12:33N 59°19' E 018°08'5 1.3
2014-Jul-29 08:29N 59°22' E 018°17'5 1.6
2014-Jul-29 05:33N 59°19' E 018°09'1 0.1
2014-Jul-28 14:25N 59°20' E 018°11'3 3.5
2014-Jul-28 13:25N 59°20' E 018°05'4 0.6
2014-Jul-28 06:24N 59°20' E 018°12'4 4.6
2014-Jul-28 05:31N 59°20' E 018°04'0 0.0
2014-Jul-28 04:31N 59°20' E 018°04'0 0.0
2014-Jul-28 03:28N 59°20' E 018°04'0 0.0
2014-Jul-28 02:31N 59°20' E 018°04'0 0.0
2014-Jul-28 01:31N 59°20' E 018°04'0 0.0
2014-Jul-28 00:31N 59°20' E 018°04'0 0.0
2014-Jul-27 23:31N 59°20' E 018°04'0 0.0
2014-Jul-27 22:31N 59°20' E 018°04'0 0.0
2014-Jul-27 21:31N 59°20' E 018°04'0 0.0
2014-Jul-27 20:31N 59°20' E 018°04'0 0.0
2014-Jul-27 19:31N 59°20' E 018°04'0 0.0
2014-Jul-27 18:31N 59°20' E 018°04'4 0.7
2014-Jul-27 13:33N 59°20' E 018°12'1 0.6
2014-Jul-27 12:33N 59°20' E 018°11'6 1.1
2014-Jul-27 07:11N 59°23' E 018°20'913.6
2014-Jul-27 06:34N 59°19' E 018°05'0 0.5
2014-Jul-27 05:31N 59°20' E 018°04'0 0.0
2014-Jul-27 04:31N 59°20' E 018°04'0 0.0
2014-Jul-27 03:31N 59°20' E 018°04'0 0.0
2014-Jul-27 02:28N 59°20' E 018°04'0 0.0
2014-Jul-27 01:31N 59°20' E 018°04'0 0.0
2014-Jul-27 00:28N 59°20' E 018°04'0 0.0
2014-Jul-26 23:28N 59°20' E 018°04'0 0.0
2014-Jul-26 22:28N 59°20' E 018°04'0 0.0
2014-Jul-26 21:28N 59°20' E 018°04'0 0.0
2014-Jul-26 20:31N 59°20' E 018°04'0 0.0
2014-Jul-26 19:28N 59°20' E 018°04'0 0.0
2014-Jul-26 18:28N 59°20' E 018°04'0 0.0
2014-Jul-26 17:28N 59°20' E 018°04'0 0.0
2014-Jul-26 16:31N 59°20' E 018°04'0 0.0
2014-Jul-26 15:28N 59°20' E 018°04'0 0.0
2014-Jul-26 14:31N 59°20' E 018°04'0 0.0
2014-Jul-26 13:31N 59°20' E 018°04'6 5.2
2014-Jul-26 12:27N 59°22' E 018°15'3 0.6
2014-Jul-26 07:15N 59°23' E 018°20'912.3
2014-Jul-26 06:33N 59°19' E 018°05'1 0.1
2014-Jul-26 03:04N 59°20' E 018°05'0 0.0
2014-Jul-25 17:08N 59°20' E 018°05'6 7.4
2014-Jul-25 16:22N 59°22' E 018°15'3 0.5
2014-Jul-25 10:18N 59°23' E 018°20'911.6
2014-Jul-25 09:33N 59°19' E 018°05'3 2.5
2014-Jul-25 08:33N 59°19' E 018°10'2 0.1
2014-Jul-24 15:32N 59°21' E 018°13'5 3.1
2014-Jul-24 14:03N 59°20' E 018°05'4 8.0
2014-Jul-24 13:33N 59°20' E 018°12'5 0.8
2014-Jul-24 07:18N 59°23' E 018°20'811.4
2014-Jul-24 06:33N 59°19' E 018°05'0 0.4
2014-Jul-24 05:28N 59°20' E 018°05'0 0.0
2014-Jul-24 04:31N 59°20' E 018°05'0 0.0
2014-Jul-24 03:31N 59°20' E 018°05'0 0.0
2014-Jul-24 02:31N 59°20' E 018°05'0 0.0
2014-Jul-24 01:31N 59°20' E 018°05'0 0.0
2014-Jul-24 00:25N 59°20' E 018°05'0 0.0
2014-Jul-23 23:28N 59°20' E 018°05'0 0.0
2014-Jul-23 22:31N 59°20' E 018°05'0 0.0
2014-Jul-23 21:28N 59°20' E 018°05'0 0.0
2014-Jul-23 20:33N 59°20' E 018°05'7 1.4
2014-Jul-23 15:12N 59°23' E 018°18'711.4
2014-Jul-23 14:33N 59°19' E 018°05'0 0.1
2014-Jul-23 12:06N 59°20' E 018°05'0 0.8
2014-Jul-23 11:33N 59°19' E 018°05'8 7.0
2014-Jul-23 10:21N 59°23' E 018°20'8 7.2
2014-Jul-23 09:10N 59°20' E 018°05'4 2.4
2014-Jul-23 07:33N 59°20' E 018°12'5 0.3
2014-Jul-22 14:17N 59°23' E 018°20'811.1
2014-Jul-22 13:32N 59°20' E 018°05'3 3.2
2014-Jul-22 12:33N 59°19' E 018°11'4 1.0
2014-Jul-22 08:28N 59°22' E 018°17'5 1.6
2014-Jul-22 05:33N 59°19' E 018°09'1 0.1
2014-Jul-21 14:12N 59°19' E 018°07'1 1.3
2014-Jul-21 13:30N 59°19' E 018°05'1 0.1
2014-Jul-21 06:09N 59°19' E 018°06'1 0.6
2014-Jul-21 04:09N 59°20' E 018°04'0 0.0
2014-Jul-20 18:33N 59°20' E 018°04'  

Dump ship's entire track history